sensor_id;sensor_type;location;lat;lon;timestamp;P1;durP1;ratioP1;P2;durP2;ratioP2
37339;SDS011;23223;51.006;7.610;2024-01-30T00:01:15;17.50;;;9.23;;
37339;SDS011;23223;51.006;7.610;2024-01-30T00:03:41;15.15;;;10.73;;
37339;SDS011;23223;51.006;7.610;2024-01-30T00:06:07;14.80;;;8.65;;
37339;SDS011;23223;51.006;7.610;2024-01-30T00:08:33;15.27;;;9.80;;
37339;SDS011;23223;51.006;7.610;2024-01-30T00:10:59;21.40;;;10.23;;
37339;SDS011;23223;51.006;7.610;2024-01-30T00:13:25;15.18;;;8.90;;
37339;SDS011;23223;51.006;7.610;2024-01-30T00:15:51;13.20;;;9.32;;
37339;SDS011;23223;51.006;7.610;2024-01-30T00:18:17;15.07;;;9.18;;
37339;SDS011;23223;51.006;7.610;2024-01-30T00:20:43;15.20;;;9.15;;
37339;SDS011;23223;51.006;7.610;2024-01-30T00:23:09;12.43;;;8.60;;
37339;SDS011;23223;51.006;7.610;2024-01-30T00:25:34;14.60;;;8.38;;
37339;SDS011;23223;51.006;7.610;2024-01-30T00:28:00;13.93;;;8.52;;
37339;SDS011;23223;51.006;7.610;2024-01-30T00:30:26;11.15;;;8.32;;
37339;SDS011;23223;51.006;7.610;2024-01-30T00:32:51;13.23;;;9.35;;
37339;SDS011;23223;51.006;7.610;2024-01-30T00:35:17;11.82;;;7.82;;
37339;SDS011;23223;51.006;7.610;2024-01-30T00:37:43;10.57;;;6.57;;
37339;SDS011;23223;51.006;7.610;2024-01-30T00:40:08;11.55;;;8.07;;
37339;SDS011;23223;51.006;7.610;2024-01-30T00:42:40;13.88;;;9.57;;
37339;SDS011;23223;51.006;7.610;2024-01-30T00:45:15;17.85;;;11.23;;
37339;SDS011;23223;51.006;7.610;2024-01-30T00:47:41;15.88;;;10.63;;
37339;SDS011;23223;51.006;7.610;2024-01-30T00:50:07;14.40;;;9.05;;
37339;SDS011;23223;51.006;7.610;2024-01-30T00:52:33;10.70;;;7.28;;
37339;SDS011;23223;51.006;7.610;2024-01-30T00:54:59;10.95;;;7.47;;
37339;SDS011;23223;51.006;7.610;2024-01-30T00:57:25;18.98;;;9.02;;
37339;SDS011;23223;51.006;7.610;2024-01-30T00:59:50;9.27;;;6.63;;
37339;SDS011;23223;51.006;7.610;2024-01-30T01:02:16;9.60;;;6.32;;
37339;SDS011;23223;51.006;7.610;2024-01-30T01:04:44;10.93;;;7.75;;
37339;SDS011;23223;51.006;7.610;2024-01-30T01:07:10;10.73;;;7.43;;
37339;SDS011;23223;51.006;7.610;2024-01-30T01:09:37;9.32;;;7.13;;
37339;SDS011;23223;51.006;7.610;2024-01-30T01:12:03;11.73;;;8.57;;
37339;SDS011;23223;51.006;7.610;2024-01-30T01:14:30;10.95;;;7.80;;
37339;SDS011;23223;51.006;7.610;2024-01-30T01:16:56;12.88;;;7.60;;
37339;SDS011;23223;51.006;7.610;2024-01-30T01:19:21;9.75;;;6.57;;
37339;SDS011;23223;51.006;7.610;2024-01-30T01:21:47;9.90;;;7.60;;
37339;SDS011;23223;51.006;7.610;2024-01-30T01:24:13;9.95;;;7.38;;
37339;SDS011;23223;51.006;7.610;2024-01-30T01:26:38;9.52;;;6.47;;
37339;SDS011;23223;51.006;7.610;2024-01-30T01:29:04;9.98;;;7.53;;
37339;SDS011;23223;51.006;7.610;2024-01-30T01:31:35;11.57;;;7.53;;
37339;SDS011;23223;51.006;7.610;2024-01-30T01:34:05;13.93;;;7.80;;
37339;SDS011;23223;51.006;7.610;2024-01-30T01:36:30;11.35;;;7.60;;
37339;SDS011;23223;51.006;7.610;2024-01-30T01:38:56;9.50;;;7.95;;
37339;SDS011;23223;51.006;7.610;2024-01-30T01:41:21;9.95;;;7.80;;
37339;SDS011;23223;51.006;7.610;2024-01-30T01:43:47;13.55;;;8.52;;
37339;SDS011;23223;51.006;7.610;2024-01-30T01:46:13;10.13;;;7.05;;
37339;SDS011;23223;51.006;7.610;2024-01-30T01:48:38;9.57;;;7.22;;
37339;SDS011;23223;51.006;7.610;2024-01-30T01:51:04;9.05;;;7.00;;
37339;SDS011;23223;51.006;7.610;2024-01-30T01:53:31;8.25;;;5.15;;
37339;SDS011;23223;51.006;7.610;2024-01-30T01:55:57;7.18;;;6.05;;
37339;SDS011;23223;51.006;7.610;2024-01-30T01:58:22;11.27;;;6.85;;
37339;SDS011;23223;51.006;7.610;2024-01-30T02:00:53;14.30;;;8.52;;
37339;SDS011;23223;51.006;7.610;2024-01-30T02:03:19;11.32;;;6.97;;
37339;SDS011;23223;51.006;7.610;2024-01-30T02:05:48;12.55;;;7.95;;
37339;SDS011;23223;51.006;7.610;2024-01-30T02:08:15;14.23;;;7.47;;
37339;SDS011;23223;51.006;7.610;2024-01-30T02:10:41;9.40;;;6.63;;
37339;SDS011;23223;51.006;7.610;2024-01-30T02:13:07;13.60;;;7.85;;
37339;SDS011;23223;51.006;7.610;2024-01-30T02:15:33;9.73;;;6.57;;
37339;SDS011;23223;51.006;7.610;2024-01-30T02:17:58;9.98;;;6.13;;
37339;SDS011;23223;51.006;7.610;2024-01-30T02:20:24;7.93;;;5.85;;
37339;SDS011;23223;51.006;7.610;2024-01-30T02:22:55;8.00;;;5.65;;
37339;SDS011;23223;51.006;7.610;2024-01-30T02:25:30;14.85;;;7.65;;
37339;SDS011;23223;51.006;7.610;2024-01-30T02:27:56;10.18;;;7.25;;
37339;SDS011;23223;51.006;7.610;2024-01-30T02:30:22;8.15;;;5.00;;
37339;SDS011;23223;51.006;7.610;2024-01-30T02:32:48;9.27;;;6.68;;
37339;SDS011;23223;51.006;7.610;2024-01-30T02:35:13;9.77;;;6.82;;
37339;SDS011;23223;51.006;7.610;2024-01-30T02:37:39;7.82;;;6.10;;
37339;SDS011;23223;51.006;7.610;2024-01-30T02:40:04;7.50;;;5.50;;
37339;SDS011;23223;51.006;7.610;2024-01-30T02:42:31;10.02;;;6.43;;
37339;SDS011;23223;51.006;7.610;2024-01-30T02:44:56;9.60;;;7.03;;
37339;SDS011;23223;51.006;7.610;2024-01-30T02:47:22;6.90;;;5.25;;
37339;SDS011;23223;51.006;7.610;2024-01-30T02:49:47;6.90;;;5.10;;
37339;SDS011;23223;51.006;7.610;2024-01-30T02:52:13;9.13;;;6.68;;
37339;SDS011;23223;51.006;7.610;2024-01-30T02:54:38;13.05;;;7.28;;
37339;SDS011;23223;51.006;7.610;2024-01-30T02:57:04;10.55;;;7.07;;
37339;SDS011;23223;51.006;7.610;2024-01-30T02:59:30;8.55;;;7.00;;
37339;SDS011;23223;51.006;7.610;2024-01-30T03:01:58;8.65;;;5.95;;
37339;SDS011;23223;51.006;7.610;2024-01-30T03:04:24;8.13;;;6.55;;
37339;SDS011;23223;51.006;7.610;2024-01-30T03:06:49;8.30;;;5.50;;
37339;SDS011;23223;51.006;7.610;2024-01-30T03:09:16;10.75;;;7.97;;
37339;SDS011;23223;51.006;7.610;2024-01-30T03:11:42;6.07;;;5.45;;
37339;SDS011;23223;51.006;7.610;2024-01-30T03:14:08;10.68;;;5.82;;
37339;SDS011;23223;51.006;7.610;2024-01-30T03:16:35;7.68;;;5.53;;
37339;SDS011;23223;51.006;7.610;2024-01-30T03:19:02;9.90;;;6.53;;
37339;SDS011;23223;51.006;7.610;2024-01-30T03:21:28;9.15;;;6.45;;
37339;SDS011;23223;51.006;7.610;2024-01-30T03:23:54;9.13;;;6.43;;
37339;SDS011;23223;51.006;7.610;2024-01-30T03:26:19;9.13;;;6.35;;
37339;SDS011;23223;51.006;7.610;2024-01-30T03:28:45;9.75;;;7.00;;
37339;SDS011;23223;51.006;7.610;2024-01-30T03:31:13;11.35;;;7.68;;
37339;SDS011;23223;51.006;7.610;2024-01-30T03:33:40;10.57;;;7.32;;
37339;SDS011;23223;51.006;7.610;2024-01-30T03:36:06;12.52;;;7.85;;
37339;SDS011;23223;51.006;7.610;2024-01-30T03:38:32;6.13;;;4.93;;
37339;SDS011;23223;51.006;7.610;2024-01-30T03:40:58;11.10;;;7.30;;
37339;SDS011;23223;51.006;7.610;2024-01-30T03:43:24;8.25;;;6.43;;
37339;SDS011;23223;51.006;7.610;2024-01-30T03:45:50;12.25;;;7.38;;
37339;SDS011;23223;51.006;7.610;2024-01-30T03:48:15;11.52;;;7.38;;
37339;SDS011;23223;51.006;7.610;2024-01-30T03:50:41;9.68;;;6.57;;
37339;SDS011;23223;51.006;7.610;2024-01-30T03:53:06;13.38;;;6.25;;
37339;SDS011;23223;51.006;7.610;2024-01-30T03:55:32;13.63;;;6.97;;
37339;SDS011;23223;51.006;7.610;2024-01-30T03:57:57;9.30;;;6.82;;
37339;SDS011;23223;51.006;7.610;2024-01-30T04:00:23;6.93;;;5.68;;
37339;SDS011;23223;51.006;7.610;2024-01-30T04:02:49;8.48;;;5.85;;
37339;SDS011;23223;51.006;7.610;2024-01-30T04:05:16;8.10;;;5.47;;
37339;SDS011;23223;51.006;7.610;2024-01-30T04:07:42;6.80;;;5.25;;
37339;SDS011;23223;51.006;7.610;2024-01-30T04:10:08;9.93;;;5.78;;
37339;SDS011;23223;51.006;7.610;2024-01-30T04:12:34;9.07;;;7.00;;
37339;SDS011;23223;51.006;7.610;2024-01-30T04:15:01;11.82;;;6.63;;
37339;SDS011;23223;51.006;7.610;2024-01-30T04:17:27;11.52;;;6.15;;
37339;SDS011;23223;51.006;7.610;2024-01-30T04:19:54;9.90;;;5.93;;
37339;SDS011;23223;51.006;7.610;2024-01-30T04:22:19;7.32;;;5.45;;
37339;SDS011;23223;51.006;7.610;2024-01-30T04:24:45;6.88;;;4.88;;
37339;SDS011;23223;51.006;7.610;2024-01-30T04:27:11;6.80;;;5.55;;
37339;SDS011;23223;51.006;7.610;2024-01-30T04:29:36;9.43;;;5.13;;
37339;SDS011;23223;51.006;7.610;2024-01-30T04:32:02;7.90;;;5.78;;
37339;SDS011;23223;51.006;7.610;2024-01-30T04:34:28;8.98;;;6.72;;
37339;SDS011;23223;51.006;7.610;2024-01-30T04:36:54;7.72;;;5.43;;
37339;SDS011;23223;51.006;7.610;2024-01-30T04:39:19;9.20;;;6.10;;
37339;SDS011;23223;51.006;7.610;2024-01-30T04:41:45;7.10;;;5.13;;
37339;SDS011;23223;51.006;7.610;2024-01-30T04:44:10;6.85;;;5.38;;
37339;SDS011;23223;51.006;7.610;2024-01-30T04:46:36;8.38;;;5.13;;
37339;SDS011;23223;51.006;7.610;2024-01-30T04:49:02;9.07;;;6.30;;
37339;SDS011;23223;51.006;7.610;2024-01-30T04:51:28;9.07;;;5.20;;
37339;SDS011;23223;51.006;7.610;2024-01-30T04:53:54;5.63;;;4.32;;
37339;SDS011;23223;51.006;7.610;2024-01-30T04:56:20;8.05;;;4.45;;
37339;SDS011;23223;51.006;7.610;2024-01-30T04:58:46;6.32;;;5.25;;
37339;SDS011;23223;51.006;7.610;2024-01-30T05:01:15;10.25;;;5.38;;
37339;SDS011;23223;51.006;7.610;2024-01-30T05:03:41;11.00;;;6.07;;
37339;SDS011;23223;51.006;7.610;2024-01-30T05:06:07;9.00;;;4.97;;
37339;SDS011;23223;51.006;7.610;2024-01-30T05:08:32;5.93;;;4.43;;
37339;SDS011;23223;51.006;7.610;2024-01-30T05:11:01;5.32;;;4.00;;
37339;SDS011;23223;51.006;7.610;2024-01-30T05:13:28;9.68;;;5.93;;
37339;SDS011;23223;51.006;7.610;2024-01-30T05:15:57;8.95;;;5.68;;
37339;SDS011;23223;51.006;7.610;2024-01-30T05:18:23;8.77;;;5.97;;
37339;SDS011;23223;51.006;7.610;2024-01-30T05:20:51;10.60;;;6.50;;
37339;SDS011;23223;51.006;7.610;2024-01-30T05:23:17;8.85;;;5.25;;
37339;SDS011;23223;51.006;7.610;2024-01-30T05:25:42;8.68;;;6.78;;
37339;SDS011;23223;51.006;7.610;2024-01-30T05:28:08;8.88;;;6.38;;
37339;SDS011;23223;51.006;7.610;2024-01-30T05:30:34;12.35;;;7.28;;
37339;SDS011;23223;51.006;7.610;2024-01-30T05:32:59;10.35;;;7.53;;
37339;SDS011;23223;51.006;7.610;2024-01-30T05:35:25;11.00;;;6.85;;
37339;SDS011;23223;51.006;7.610;2024-01-30T05:37:50;9.00;;;7.40;;
37339;SDS011;23223;51.006;7.610;2024-01-30T05:40:16;14.73;;;8.18;;
37339;SDS011;23223;51.006;7.610;2024-01-30T05:42:42;11.52;;;8.57;;
37339;SDS011;23223;51.006;7.610;2024-01-30T05:45:07;10.43;;;7.15;;
37339;SDS011;23223;51.006;7.610;2024-01-30T05:47:34;13.90;;;8.48;;
37339;SDS011;23223;51.006;7.610;2024-01-30T05:50:00;10.82;;;7.45;;
37339;SDS011;23223;51.006;7.610;2024-01-30T05:52:25;17.20;;;8.55;;
37339;SDS011;23223;51.006;7.610;2024-01-30T05:54:51;11.10;;;7.22;;
37339;SDS011;23223;51.006;7.610;2024-01-30T05:57:17;12.43;;;9.35;;
37339;SDS011;23223;51.006;7.610;2024-01-30T05:59:42;15.52;;;9.02;;
37339;SDS011;23223;51.006;7.610;2024-01-30T06:02:12;14.77;;;9.60;;
37339;SDS011;23223;51.006;7.610;2024-01-30T06:04:38;12.02;;;9.27;;
37339;SDS011;23223;51.006;7.610;2024-01-30T06:07:03;9.95;;;7.43;;
37339;SDS011;23223;51.006;7.610;2024-01-30T06:09:31;11.05;;;6.68;;
37339;SDS011;23223;51.006;7.610;2024-01-30T06:11:57;11.43;;;7.20;;
37339;SDS011;23223;51.006;7.610;2024-01-30T06:14:22;13.63;;;7.85;;
37339;SDS011;23223;51.006;7.610;2024-01-30T06:16:48;15.48;;;7.28;;
37339;SDS011;23223;51.006;7.610;2024-01-30T06:19:14;12.93;;;8.15;;
37339;SDS011;23223;51.006;7.610;2024-01-30T06:21:39;17.77;;;9.13;;
37339;SDS011;23223;51.006;7.610;2024-01-30T06:24:05;15.93;;;9.00;;
37339;SDS011;23223;51.006;7.610;2024-01-30T06:26:30;19.20;;;10.50;;
37339;SDS011;23223;51.006;7.610;2024-01-30T06:28:56;11.27;;;6.70;;
37339;SDS011;23223;51.006;7.610;2024-01-30T06:31:22;10.73;;;7.38;;
37339;SDS011;23223;51.006;7.610;2024-01-30T06:33:47;11.43;;;7.93;;
37339;SDS011;23223;51.006;7.610;2024-01-30T06:36:14;11.07;;;8.20;;
37339;SDS011;23223;51.006;7.610;2024-01-30T06:38:40;12.88;;;6.10;;
37339;SDS011;23223;51.006;7.610;2024-01-30T06:41:06;12.07;;;7.45;;
37339;SDS011;23223;51.006;7.610;2024-01-30T06:43:32;8.73;;;6.35;;
37339;SDS011;23223;51.006;7.610;2024-01-30T06:45:58;10.43;;;8.27;;
37339;SDS011;23223;51.006;7.610;2024-01-30T06:48:24;10.40;;;8.18;;
37339;SDS011;23223;51.006;7.610;2024-01-30T06:50:50;11.02;;;8.23;;
37339;SDS011;23223;51.006;7.610;2024-01-30T06:53:18;24.27;;;16.85;;
37339;SDS011;23223;51.006;7.610;2024-01-30T06:55:44;22.50;;;13.32;;
37339;SDS011;23223;51.006;7.610;2024-01-30T06:58:10;16.65;;;11.88;;
37339;SDS011;23223;51.006;7.610;2024-01-30T07:00:35;14.35;;;9.50;;
37339;SDS011;23223;51.006;7.610;2024-01-30T07:03:01;15.23;;;10.30;;
37339;SDS011;23223;51.006;7.610;2024-01-30T07:05:27;16.00;;;9.20;;
37339;SDS011;23223;51.006;7.610;2024-01-30T07:07:52;11.77;;;8.23;;
37339;SDS011;23223;51.006;7.610;2024-01-30T07:10:18;10.85;;;7.95;;
37339;SDS011;23223;51.006;7.610;2024-01-30T07:12:44;15.65;;;8.95;;
37339;SDS011;23223;51.006;7.610;2024-01-30T07:15:09;10.57;;;8.20;;
37339;SDS011;23223;51.006;7.610;2024-01-30T07:17:35;13.65;;;8.00;;
37339;SDS011;23223;51.006;7.610;2024-01-30T07:20:01;7.38;;;5.90;;
37339;SDS011;23223;51.006;7.610;2024-01-30T07:22:28;11.10;;;8.45;;
37339;SDS011;23223;51.006;7.610;2024-01-30T07:24:55;13.68;;;8.60;;
37339;SDS011;23223;51.006;7.610;2024-01-30T07:27:20;20.50;;;11.05;;
37339;SDS011;23223;51.006;7.610;2024-01-30T07:29:46;21.65;;;11.90;;
37339;SDS011;23223;51.006;7.610;2024-01-30T07:32:12;20.80;;;11.77;;
37339;SDS011;23223;51.006;7.610;2024-01-30T07:34:38;17.45;;;11.18;;
37339;SDS011;23223;51.006;7.610;2024-01-30T07:37:03;12.23;;;7.70;;
37339;SDS011;23223;51.006;7.610;2024-01-30T07:39:29;23.02;;;15.15;;
37339;SDS011;23223;51.006;7.610;2024-01-30T07:41:54;16.42;;;10.50;;
37339;SDS011;23223;51.006;7.610;2024-01-30T07:44:20;27.48;;;12.43;;
37339;SDS011;23223;51.006;7.610;2024-01-30T07:46:46;20.38;;;11.20;;
37339;SDS011;23223;51.006;7.610;2024-01-30T07:49:11;29.35;;;15.45;;
37339;SDS011;23223;51.006;7.610;2024-01-30T07:51:39;25.23;;;12.30;;
37339;SDS011;23223;51.006;7.610;2024-01-30T07:54:05;22.50;;;11.10;;
37339;SDS011;23223;51.006;7.610;2024-01-30T07:56:30;22.13;;;12.68;;
37339;SDS011;23223;51.006;7.610;2024-01-30T07:58:56;30.17;;;14.93;;
37339;SDS011;23223;51.006;7.610;2024-01-30T08:01:21;32.25;;;15.90;;
37339;SDS011;23223;51.006;7.610;2024-01-30T08:03:47;27.90;;;15.65;;
37339;SDS011;23223;51.006;7.610;2024-01-30T08:06:12;26.08;;;14.90;;
37339;SDS011;23223;51.006;7.610;2024-01-30T08:08:39;16.08;;;10.85;;
37339;SDS011;23223;51.006;7.610;2024-01-30T08:11:04;18.83;;;12.23;;
37339;SDS011;23223;51.006;7.610;2024-01-30T08:13:30;17.10;;;10.45;;
37339;SDS011;23223;51.006;7.610;2024-01-30T08:15:56;19.67;;;12.95;;
37339;SDS011;23223;51.006;7.610;2024-01-30T08:18:21;22.13;;;12.88;;
37339;SDS011;23223;51.006;7.610;2024-01-30T08:20:47;22.42;;;13.77;;
37339;SDS011;23223;51.006;7.610;2024-01-30T08:23:12;23.70;;;13.38;;
37339;SDS011;23223;51.006;7.610;2024-01-30T08:25:38;28.35;;;17.05;;
37339;SDS011;23223;51.006;7.610;2024-01-30T08:28:03;27.52;;;12.55;;
37339;SDS011;23223;51.006;7.610;2024-01-30T08:30:29;21.13;;;11.90;;
37339;SDS011;23223;51.006;7.610;2024-01-30T08:32:55;23.05;;;12.43;;
37339;SDS011;23223;51.006;7.610;2024-01-30T08:35:20;23.15;;;11.50;;
37339;SDS011;23223;51.006;7.610;2024-01-30T08:37:46;19.35;;;12.00;;
37339;SDS011;23223;51.006;7.610;2024-01-30T08:40:11;20.45;;;12.68;;
37339;SDS011;23223;51.006;7.610;2024-01-30T08:42:37;24.58;;;12.65;;
37339;SDS011;23223;51.006;7.610;2024-01-30T08:45:03;19.38;;;11.80;;
37339;SDS011;23223;51.006;7.610;2024-01-30T08:47:30;24.15;;;15.32;;
37339;SDS011;23223;51.006;7.610;2024-01-30T08:49:55;23.17;;;12.52;;
37339;SDS011;23223;51.006;7.610;2024-01-30T08:52:21;22.83;;;15.15;;
37339;SDS011;23223;51.006;7.610;2024-01-30T08:54:47;22.73;;;16.10;;
37339;SDS011;23223;51.006;7.610;2024-01-30T08:57:12;22.95;;;14.18;;
37339;SDS011;23223;51.006;7.610;2024-01-30T08:59:38;23.13;;;14.10;;
37339;SDS011;23223;51.006;7.610;2024-01-30T09:02:04;17.08;;;11.93;;
37339;SDS011;23223;51.006;7.610;2024-01-30T09:04:30;13.98;;;9.88;;
37339;SDS011;23223;51.006;7.610;2024-01-30T09:06:55;11.32;;;8.35;;
37339;SDS011;23223;51.006;7.610;2024-01-30T09:09:21;16.05;;;11.70;;
37339;SDS011;23223;51.006;7.610;2024-01-30T09:11:47;10.63;;;7.85;;
37339;SDS011;23223;51.006;7.610;2024-01-30T09:14:12;20.13;;;11.05;;
37339;SDS011;23223;51.006;7.610;2024-01-30T09:16:38;16.73;;;11.30;;
37339;SDS011;23223;51.006;7.610;2024-01-30T09:19:04;15.30;;;10.90;;
37339;SDS011;23223;51.006;7.610;2024-01-30T09:21:29;16.50;;;10.55;;
37339;SDS011;23223;51.006;7.610;2024-01-30T09:24:00;17.88;;;11.80;;
37339;SDS011;23223;51.006;7.610;2024-01-30T09:26:28;20.55;;;13.30;;
37339;SDS011;23223;51.006;7.610;2024-01-30T09:28:53;18.85;;;12.32;;
37339;SDS011;23223;51.006;7.610;2024-01-30T09:31:19;22.77;;;13.32;;
37339;SDS011;23223;51.006;7.610;2024-01-30T09:33:44;18.88;;;11.90;;
37339;SDS011;23223;51.006;7.610;2024-01-30T09:36:12;17.90;;;10.90;;
37339;SDS011;23223;51.006;7.610;2024-01-30T09:38:40;13.43;;;10.88;;
37339;SDS011;23223;51.006;7.610;2024-01-30T09:41:07;19.05;;;11.50;;
37339;SDS011;23223;51.006;7.610;2024-01-30T09:43:34;24.02;;;14.57;;
37339;SDS011;23223;51.006;7.610;2024-01-30T09:46:03;19.10;;;12.73;;
37339;SDS011;23223;51.006;7.610;2024-01-30T09:48:30;23.15;;;13.93;;
37339;SDS011;23223;51.006;7.610;2024-01-30T09:50:57;24.00;;;13.57;;
37339;SDS011;23223;51.006;7.610;2024-01-30T09:53:23;20.50;;;13.38;;
37339;SDS011;23223;51.006;7.610;2024-01-30T09:55:49;22.67;;;13.77;;
37339;SDS011;23223;51.006;7.610;2024-01-30T09:58:16;21.67;;;13.80;;
37339;SDS011;23223;51.006;7.610;2024-01-30T10:00:41;20.67;;;13.80;;
37339;SDS011;23223;51.006;7.610;2024-01-30T10:03:07;13.10;;;8.93;;
37339;SDS011;23223;51.006;7.610;2024-01-30T10:05:34;25.40;;;13.02;;
37339;SDS011;23223;51.006;7.610;2024-01-30T10:08:05;22.33;;;12.52;;
37339;SDS011;23223;51.006;7.610;2024-01-30T10:10:31;28.23;;;15.00;;
37339;SDS011;23223;51.006;7.610;2024-01-30T10:12:56;22.30;;;14.43;;
37339;SDS011;23223;51.006;7.610;2024-01-30T10:15:22;24.35;;;12.07;;
37339;SDS011;23223;51.006;7.610;2024-01-30T10:17:49;20.65;;;12.82;;
37339;SDS011;23223;51.006;7.610;2024-01-30T10:20:14;20.40;;;13.50;;
37339;SDS011;23223;51.006;7.610;2024-01-30T10:22:43;17.55;;;10.98;;
37339;SDS011;23223;51.006;7.610;2024-01-30T10:25:10;15.88;;;11.27;;
37339;SDS011;23223;51.006;7.610;2024-01-30T10:27:36;18.02;;;11.30;;
37339;SDS011;23223;51.006;7.610;2024-01-30T10:30:04;21.08;;;14.10;;
37339;SDS011;23223;51.006;7.610;2024-01-30T10:32:30;18.15;;;13.57;;
37339;SDS011;23223;51.006;7.610;2024-01-30T10:34:56;23.70;;;13.73;;
37339;SDS011;23223;51.006;7.610;2024-01-30T10:37:21;21.27;;;12.25;;
37339;SDS011;23223;51.006;7.610;2024-01-30T10:39:50;15.20;;;9.65;;
37339;SDS011;23223;51.006;7.610;2024-01-30T10:42:20;13.25;;;10.48;;
37339;SDS011;23223;51.006;7.610;2024-01-30T10:45:06;27.33;;;14.25;;
37339;SDS011;23223;51.006;7.610;2024-01-30T10:47:33;18.65;;;12.82;;
37339;SDS011;23223;51.006;7.610;2024-01-30T10:50:01;33.75;;;23.58;;
37339;SDS011;23223;51.006;7.610;2024-01-30T10:52:31;26.38;;;15.80;;
37339;SDS011;23223;51.006;7.610;2024-01-30T10:54:57;27.02;;;16.55;;
37339;SDS011;23223;51.006;7.610;2024-01-30T10:57:24;23.50;;;14.77;;
37339;SDS011;23223;51.006;7.610;2024-01-30T10:59:57;13.98;;;10.43;;
37339;SDS011;23223;51.006;7.610;2024-01-30T11:02:24;24.65;;;15.18;;
37339;SDS011;23223;51.006;7.610;2024-01-30T11:04:54;24.45;;;15.60;;
37339;SDS011;23223;51.006;7.610;2024-01-30T11:07:24;29.65;;;18.48;;
37339;SDS011;23223;51.006;7.610;2024-01-30T11:09:59;26.00;;;16.52;;
37339;SDS011;23223;51.006;7.610;2024-01-30T11:12:26;22.75;;;15.90;;
37339;SDS011;23223;51.006;7.610;2024-01-30T11:20:22;22.27;;;13.50;;
37339;SDS011;23223;51.006;7.610;2024-01-30T11:22:52;14.88;;;11.52;;
37339;SDS011;23223;51.006;7.610;2024-01-30T11:25:22;21.30;;;12.23;;
37339;SDS011;23223;51.006;7.610;2024-01-30T11:27:52;14.77;;;9.52;;
37339;SDS011;23223;51.006;7.610;2024-01-30T11:30:25;21.42;;;14.75;;
37339;SDS011;23223;51.006;7.610;2024-01-30T11:32:59;26.77;;;13.77;;
37339;SDS011;23223;51.006;7.610;2024-01-30T11:35:35;25.80;;;14.45;;
37339;SDS011;23223;51.006;7.610;2024-01-30T11:38:02;20.85;;;14.00;;
37339;SDS011;23223;51.006;7.610;2024-01-30T11:40:31;22.35;;;13.75;;
37339;SDS011;23223;51.006;7.610;2024-01-30T11:42:58;25.05;;;13.20;;
37339;SDS011;23223;51.006;7.610;2024-01-30T11:45:26;19.05;;;11.52;;
37339;SDS011;23223;51.006;7.610;2024-01-30T11:47:54;18.48;;;11.07;;
37339;SDS011;23223;51.006;7.610;2024-01-30T11:50:20;28.70;;;15.60;;
37339;SDS011;23223;51.006;7.610;2024-01-30T11:52:47;19.85;;;13.15;;
37339;SDS011;23223;51.006;7.610;2024-01-30T11:55:13;25.17;;;13.77;;
37339;SDS011;23223;51.006;7.610;2024-01-30T11:57:39;14.25;;;10.48;;
37339;SDS011;23223;51.006;7.610;2024-01-30T12:00:05;20.20;;;12.13;;
37339;SDS011;23223;51.006;7.610;2024-01-30T12:02:41;23.05;;;14.65;;
37339;SDS011;23223;51.006;7.610;2024-01-30T12:05:08;15.48;;;9.77;;
37339;SDS011;23223;51.006;7.610;2024-01-30T12:07:37;19.92;;;13.93;;
37339;SDS011;23223;51.006;7.610;2024-01-30T12:10:02;14.35;;;8.68;;
37339;SDS011;23223;51.006;7.610;2024-01-30T12:12:30;23.42;;;13.40;;
37339;SDS011;23223;51.006;7.610;2024-01-30T12:14:56;22.05;;;12.38;;
37339;SDS011;23223;51.006;7.610;2024-01-30T12:17:29;14.82;;;8.75;;
37339;SDS011;23223;51.006;7.610;2024-01-30T12:20:06;20.30;;;12.18;;
37339;SDS011;23223;51.006;7.610;2024-01-30T12:22:33;18.27;;;11.32;;
37339;SDS011;23223;51.006;7.610;2024-01-30T12:25:09;17.33;;;10.20;;
37339;SDS011;23223;51.006;7.610;2024-01-30T12:27:35;17.48;;;9.95;;
37339;SDS011;23223;51.006;7.610;2024-01-30T12:30:04;17.88;;;10.18;;
37339;SDS011;23223;51.006;7.610;2024-01-30T12:32:38;12.52;;;8.15;;
37339;SDS011;23223;51.006;7.610;2024-01-30T12:35:12;12.63;;;7.78;;
37339;SDS011;23223;51.006;7.610;2024-01-30T12:37:39;13.48;;;6.80;;
37339;SDS011;23223;51.006;7.610;2024-01-30T12:40:06;8.20;;;6.45;;
37339;SDS011;23223;51.006;7.610;2024-01-30T12:42:33;11.30;;;7.82;;
37339;SDS011;23223;51.006;7.610;2024-01-30T12:44:59;9.88;;;6.13;;
37339;SDS011;23223;51.006;7.610;2024-01-30T12:47:25;11.40;;;6.68;;
37339;SDS011;23223;51.006;7.610;2024-01-30T12:49:51;7.90;;;5.78;;
37339;SDS011;23223;51.006;7.610;2024-01-30T12:52:20;9.88;;;6.07;;
37339;SDS011;23223;51.006;7.610;2024-01-30T12:54:47;13.85;;;6.43;;
37339;SDS011;23223;51.006;7.610;2024-01-30T12:57:13;10.68;;;6.05;;
37339;SDS011;23223;51.006;7.610;2024-01-30T12:59:38;10.32;;;5.85;;
37339;SDS011;23223;51.006;7.610;2024-01-30T13:02:04;10.68;;;5.63;;
37339;SDS011;23223;51.006;7.610;2024-01-30T13:04:30;10.63;;;6.00;;
37339;SDS011;23223;51.006;7.610;2024-01-30T13:06:56;9.13;;;6.15;;
37339;SDS011;23223;51.006;7.610;2024-01-30T13:09:22;11.90;;;5.95;;
37339;SDS011;23223;51.006;7.610;2024-01-30T13:11:48;7.70;;;4.90;;
37339;SDS011;23223;51.006;7.610;2024-01-30T13:14:14;12.55;;;7.18;;
37339;SDS011;23223;51.006;7.610;2024-01-30T13:16:41;8.07;;;4.90;;
37339;SDS011;23223;51.006;7.610;2024-01-30T13:19:06;7.65;;;5.28;;
37339;SDS011;23223;51.006;7.610;2024-01-30T13:21:32;8.93;;;5.97;;
37339;SDS011;23223;51.006;7.610;2024-01-30T13:23:58;12.38;;;6.45;;
37339;SDS011;23223;51.006;7.610;2024-01-30T13:26:23;8.73;;;6.50;;
37339;SDS011;23223;51.006;7.610;2024-01-30T13:28:49;9.68;;;6.45;;
37339;SDS011;23223;51.006;7.610;2024-01-30T13:31:14;10.82;;;6.32;;
37339;SDS011;23223;51.006;7.610;2024-01-30T13:33:41;9.35;;;6.13;;
37339;SDS011;23223;51.006;7.610;2024-01-30T13:36:07;12.65;;;7.03;;
37339;SDS011;23223;51.006;7.610;2024-01-30T13:38:36;12.73;;;6.90;;
37339;SDS011;23223;51.006;7.610;2024-01-30T13:41:02;12.52;;;6.72;;
37339;SDS011;23223;51.006;7.610;2024-01-30T13:43:28;9.27;;;5.88;;
37339;SDS011;23223;51.006;7.610;2024-01-30T13:45:54;18.90;;;7.35;;
37339;SDS011;23223;51.006;7.610;2024-01-30T13:48:19;14.63;;;5.68;;
37339;SDS011;23223;51.006;7.610;2024-01-30T13:50:46;13.48;;;7.28;;
37339;SDS011;23223;51.006;7.610;2024-01-30T13:53:12;17.92;;;6.80;;
37339;SDS011;23223;51.006;7.610;2024-01-30T13:55:38;10.43;;;5.20;;
37339;SDS011;23223;51.006;7.610;2024-01-30T13:58:04;15.13;;;6.00;;
37339;SDS011;23223;51.006;7.610;2024-01-30T14:00:30;7.95;;;4.88;;
37339;SDS011;23223;51.006;7.610;2024-01-30T14:02:56;12.85;;;6.75;;
37339;SDS011;23223;51.006;7.610;2024-01-30T14:05:23;16.67;;;7.15;;
37339;SDS011;23223;51.006;7.610;2024-01-30T14:07:49;7.32;;;5.22;;
37339;SDS011;23223;51.006;7.610;2024-01-30T14:10:16;16.50;;;7.10;;
37339;SDS011;23223;51.006;7.610;2024-01-30T14:12:42;8.50;;;5.72;;
37339;SDS011;23223;51.006;7.610;2024-01-30T14:15:13;17.48;;;7.15;;
37339;SDS011;23223;51.006;7.610;2024-01-30T14:17:40;10.55;;;5.70;;
37339;SDS011;23223;51.006;7.610;2024-01-30T14:20:05;13.48;;;6.93;;
37339;SDS011;23223;51.006;7.610;2024-01-30T14:22:33;6.78;;;5.03;;
37339;SDS011;23223;51.006;7.610;2024-01-30T14:24:58;16.80;;;7.22;;
37339;SDS011;23223;51.006;7.610;2024-01-30T14:27:25;13.75;;;7.60;;
37339;SDS011;23223;51.006;7.610;2024-01-30T14:29:50;10.63;;;5.40;;
37339;SDS011;23223;51.006;7.610;2024-01-30T14:32:16;11.00;;;7.00;;
37339;SDS011;23223;51.006;7.610;2024-01-30T14:34:42;9.45;;;5.50;;